createdAt,value
2023-06-17T00:00:45.743Z,22.83
2023-06-17T00:01:49.438Z,23.04
2023-06-17T00:02:52.878Z,23.10
2023-06-17T00:03:56.479Z,23.00
2023-06-17T00:04:58.856Z,22.98
2023-06-17T00:06:02.274Z,23.04
2023-06-17T00:07:05.083Z,23.09
2023-06-17T00:08:08.664Z,22.80
2023-06-17T00:09:11.332Z,22.98
2023-06-17T00:10:14.961Z,22.73
2023-06-17T00:11:17.570Z,22.83
2023-06-17T00:12:22.804Z,22.93
2023-06-17T00:13:25.948Z,23.08
2023-06-17T00:14:29.578Z,22.96
2023-06-17T00:15:34.399Z,22.99
2023-06-17T00:16:38.258Z,23.18
2023-06-17T00:17:46.007Z,23.26
2023-06-17T00:18:53.166Z,23.28
2023-06-17T00:19:58.061Z,23.24
2023-06-17T00:21:01.498Z,23.18
2023-06-17T00:22:09.805Z,23.05
2023-06-17T00:23:13.763Z,23.01
2023-06-17T00:24:16.657Z,23.14
2023-06-17T00:25:21.559Z,23.12
2023-06-17T00:26:25.056Z,23.14
2023-06-17T00:27:31.816Z,23.18
2023-06-17T00:28:34.225Z,23.23
2023-06-17T00:29:37.830Z,23.27
2023-06-17T00:30:40.235Z,23.23
2023-06-17T00:31:43.885Z,23.21
2023-06-17T00:32:46.468Z,23.18
2023-06-17T00:33:50.002Z,23.24
2023-06-17T00:34:52.405Z,23.27
2023-06-17T00:35:56.133Z,23.17
2023-06-17T00:36:58.641Z,23.18
2023-06-17T00:38:02.254Z,23.22
2023-06-17T00:39:05.099Z,23.14
2023-06-17T00:40:10.989Z,23.13
2023-06-17T00:41:13.491Z,23.00
2023-06-17T00:42:17.545Z,23.02
2023-06-17T00:43:21.652Z,23.04
2023-06-17T00:44:25.337Z,23.03
2023-06-17T00:45:28.081Z,22.97
2023-06-17T00:46:41.526Z,22.97
2023-06-17T00:47:44.047Z,22.98
2023-06-17T00:48:47.832Z,22.93
2023-06-17T00:49:54.724Z,22.85
2023-06-17T00:51:03.230Z,22.87
2023-06-17T00:52:23.845Z,22.84
2023-06-17T00:53:33.810Z,22.78
2023-06-17T00:54:38.567Z,22.69
2023-06-17T00:55:42.127Z,22.74
2023-06-17T00:56:45.657Z,22.73
2023-06-17T00:57:49.380Z,22.73
2023-06-17T00:58:55.340Z,22.70
2023-06-17T00:59:59.011Z,22.72
2023-06-17T01:01:01.381Z,22.72
2023-06-17T01:02:05.284Z,22.70
2023-06-17T01:03:15.412Z,22.70
2023-06-17T01:04:18.653Z,22.65
2023-06-17T01:05:22.340Z,22.68
2023-06-17T01:06:30.814Z,22.64
2023-06-17T01:07:42.487Z,22.62
2023-06-17T01:08:51.042Z,22.52
2023-06-17T01:09:59.384Z,22.55
2023-06-17T01:11:06.554Z,22.57
2023-06-17T01:12:11.768Z,22.55
2023-06-17T01:13:17.510Z,22.55
2023-06-17T01:14:23.234Z,22.64
2023-06-17T01:15:26.977Z,22.54
2023-06-17T01:16:33.450Z,22.56
2023-06-17T01:17:37.213Z,22.55
2023-06-17T01:18:43.628Z,22.46
2023-06-17T01:19:50.175Z,22.51
2023-06-17T01:20:55.286Z,22.55
2023-06-17T01:21:58.773Z,22.53
2023-06-17T01:23:04.138Z,22.56
2023-06-17T01:24:09.057Z,22.67
2023-06-17T01:25:15.374Z,22.71
2023-06-17T01:26:21.114Z,22.48
2023-06-17T01:27:27.384Z,22.38
2023-06-17T01:28:32.185Z,22.49
2023-06-17T01:29:39.112Z,22.54
2023-06-17T01:30:42.845Z,22.52
2023-06-17T01:31:49.936Z,22.51
2023-06-17T01:32:52.777Z,22.38
2023-06-17T01:34:02.717Z,22.47
2023-06-17T01:35:08.946Z,22.52
2023-06-17T01:36:17.776Z,22.44
2023-06-17T01:37:27.266Z,22.40
2023-06-17T01:38:37.477Z,22.45
2023-06-17T01:39:44.290Z,22.43
2023-06-17T01:40:54.410Z,22.43
2023-06-17T01:42:02.709Z,22.40
2023-06-17T01:43:08.981Z,22.50
2023-06-17T01:44:13.815Z,22.48
2023-06-17T01:45:18.393Z,22.45
2023-06-17T01:46:22.144Z,22.39
2023-06-17T01:47:26.232Z,22.43
2023-06-17T01:48:29.043Z,22.47
2023-06-17T01:49:33.201Z,22.47
2023-06-17T01:50:35.909Z,22.49
2023-06-17T01:51:39.729Z,22.46
2023-06-17T01:52:42.598Z,22.44
2023-06-17T01:53:46.261Z,22.56
2023-06-17T01:54:49.306Z,22.60
2023-06-17T01:55:55.830Z,22.66
2023-06-17T01:56:58.499Z,22.61
2023-06-17T01:58:02.415Z,22.45
2023-06-17T01:59:05.071Z,22.52
2023-06-17T02:00:10.282Z,22.54
2023-06-17T02:01:13.154Z,22.42
2023-06-17T02:02:16.852Z,22.41
2023-06-17T02:03:19.607Z,22.46
2023-06-17T02:04:23.302Z,22.37
2023-06-17T02:05:25.875Z,22.44
2023-06-17T02:06:29.780Z,22.38
2023-06-17T02:07:32.555Z,22.45
2023-06-17T02:08:36.635Z,22.46
2023-06-17T02:09:39.209Z,22.47
2023-06-17T02:10:42.956Z,22.44
2023-06-17T02:11:47.149Z,22.41
2023-06-17T02:12:51.035Z,22.40
2023-06-17T02:13:53.878Z,22.40
2023-06-17T02:14:57.891Z,22.39
2023-06-17T02:16:00.742Z,22.39
2023-06-17T02:17:05.397Z,22.39
2023-06-17T02:18:08.423Z,22.40
2023-06-17T02:19:13.752Z,22.41
2023-06-17T02:20:16.389Z,22.40
2023-06-17T02:21:20.382Z,22.42
2023-06-17T02:22:24.135Z,22.19
2023-06-17T02:23:29.628Z,22.23
2023-06-17T02:24:32.535Z,22.34
2023-06-17T02:25:38.152Z,22.34
2023-06-17T02:26:42.173Z,22.40
2023-06-17T02:27:47.150Z,22.48
2023-06-17T02:28:49.949Z,22.52
2023-06-17T02:29:53.864Z,22.47
2023-06-17T02:30:56.725Z,22.41
2023-06-17T02:32:00.491Z,22.42
2023-06-17T02:33:03.315Z,22.29
2023-06-17T02:34:07.048Z,22.20
2023-06-17T02:35:11.698Z,22.10
2023-06-17T02:36:15.992Z,21.85
2023-06-17T02:37:19.978Z,21.70
2023-06-17T02:38:26.025Z,21.87
2023-06-17T02:39:28.492Z,21.89
2023-06-17T02:40:32.487Z,22.00
2023-06-17T02:41:35.067Z,22.04
2023-06-17T02:42:39.728Z,22.03
2023-06-17T02:43:43.961Z,22.16
2023-06-17T02:44:47.703Z,22.13
2023-06-17T02:45:51.144Z,21.97
2023-06-17T02:46:54.257Z,21.99
2023-06-17T02:47:57.892Z,22.12
2023-06-17T02:49:00.485Z,22.16
2023-06-17T02:50:04.887Z,22.17
2023-06-17T02:51:09.167Z,22.10
2023-06-17T02:52:14.644Z,22.21
2023-06-17T02:53:17.651Z,22.10
2023-06-17T02:54:21.728Z,22.08
2023-06-17T02:55:28.195Z,22.12
2023-06-17T02:56:31.883Z,22.13
2023-06-17T02:57:34.553Z,22.05
2023-06-17T02:58:38.338Z,22.06
2023-06-17T02:59:43.065Z,21.95
2023-06-17T03:00:47.485Z,22.12
2023-06-17T03:01:50.310Z,22.18
2023-06-17T03:02:54.535Z,22.10
2023-06-17T03:03:57.709Z,21.93
2023-06-17T03:05:01.473Z,22.13
2023-06-17T03:06:06.352Z,22.12
2023-06-17T03:07:09.853Z,21.74
2023-06-17T03:08:12.368Z,21.75
2023-06-17T03:09:15.879Z,21.71
2023-06-17T03:10:19.878Z,21.76
2023-06-17T03:11:23.953Z,21.70
2023-06-17T03:12:26.456Z,21.41
2023-06-17T03:13:30.811Z,21.39
2023-06-17T03:14:33.814Z,21.28
2023-06-17T03:15:40.585Z,21.38
2023-06-17T03:16:45.946Z,21.42
2023-06-17T03:17:49.985Z,21.42
2023-06-17T03:18:53.123Z,21.20
2023-06-17T03:19:58.184Z,21.44
2023-06-17T03:21:01.677Z,21.47
2023-06-17T03:22:05.962Z,21.61
2023-06-17T03:23:08.787Z,21.25
2023-06-17T03:24:12.789Z,21.11
2023-06-17T03:25:15.855Z,21.52
2023-06-17T03:26:19.621Z,21.30
2023-06-17T03:27:22.377Z,21.59
2023-06-17T03:28:25.998Z,21.56
2023-06-17T03:29:29.004Z,21.45
2023-06-17T03:30:33.398Z,21.59
2023-06-17T03:31:38.199Z,21.80
2023-06-17T03:32:46.211Z,21.76
2023-06-17T03:33:51.464Z,21.44
2023-06-17T03:34:55.327Z,21.45
2023-06-17T03:35:58.439Z,21.52
2023-06-17T03:37:02.079Z,21.59
2023-06-17T03:38:04.504Z,21.65
2023-06-17T03:39:08.548Z,21.58
2023-06-17T03:40:11.833Z,21.67
2023-06-17T03:41:15.940Z,21.81
2023-06-17T03:42:18.769Z,21.88
2023-06-17T03:43:24.695Z,21.89
2023-06-17T03:44:27.427Z,21.83
2023-06-17T03:45:32.255Z,22.04
2023-06-17T03:46:36.393Z,22.06
2023-06-17T03:47:40.675Z,22.06
2023-06-17T03:48:43.208Z,22.19
2023-06-17T03:49:49.380Z,22.08
2023-06-17T03:50:52.036Z,21.84
2023-06-17T03:51:58.645Z,21.93
2023-06-17T03:53:01.305Z,21.90
2023-06-17T03:54:05.236Z,21.86
2023-06-17T03:55:09.188Z,21.83
2023-06-17T03:56:12.849Z,21.82
2023-06-17T03:57:15.470Z,21.79
2023-06-17T03:58:20.095Z,21.81
2023-06-17T03:59:23.461Z,21.88
2023-06-17T04:00:28.139Z,21.76
2023-06-17T04:01:31.841Z,21.77
2023-06-17T04:02:37.054Z,21.85
2023-06-17T04:03:39.921Z,21.97
2023-06-17T04:04:45.445Z,21.97
2023-06-17T04:05:48.418Z,21.89
2023-06-17T04:06:52.039Z,21.79
2023-06-17T04:07:55.069Z,21.71
2023-06-17T04:08:58.917Z,21.59
2023-06-17T04:10:06.508Z,21.79
2023-06-17T04:11:14.294Z,21.89
2023-06-17T04:12:17.417Z,21.92
2023-06-17T04:13:21.418Z,22.05
2023-06-17T04:14:24.228Z,22.07
2023-06-17T04:15:28.277Z,22.10
2023-06-17T04:16:32.066Z,22.19
2023-06-17T04:17:38.057Z,22.36
2023-06-17T04:18:41.806Z,22.45
2023-06-17T04:19:45.527Z,22.32
2023-06-17T04:20:50.832Z,22.37
2023-06-17T04:21:53.411Z,22.22
2023-06-17T04:22:56.856Z,22.29
2023-06-17T04:23:59.652Z,22.31
2023-06-17T04:25:03.256Z,22.24
2023-06-17T04:26:06.370Z,22.31
2023-06-17T04:27:11.662Z,22.28
2023-06-17T04:28:14.631Z,22.32
2023-06-17T04:29:18.802Z,22.26
2023-06-17T04:30:21.751Z,22.20
2023-06-17T04:31:26.587Z,22.38
2023-06-17T04:32:29.882Z,22.36
2023-06-17T04:33:39.382Z,22.29
2023-06-17T04:34:43.972Z,22.32
2023-06-17T04:35:48.559Z,22.20
2023-06-17T04:36:58.112Z,22.21
2023-06-17T04:38:04.162Z,22.04
2023-06-17T04:39:07.366Z,22.11
2023-06-17T04:40:13.542Z,22.11
2023-06-17T04:41:18.526Z,22.12
2023-06-17T04:42:22.204Z,22.24
2023-06-17T04:43:25.458Z,22.10
2023-06-17T04:44:32.797Z,22.06
2023-06-17T04:45:36.563Z,22.21
2023-06-17T04:46:40.272Z,22.12
2023-06-17T04:47:43.625Z,22.18
2023-06-17T04:48:48.853Z,21.93
2023-06-17T04:49:53.071Z,22.06
2023-06-17T04:50:57.488Z,22.03
2023-06-17T04:52:00.111Z,22.15
2023-06-17T04:53:05.357Z,22.19
2023-06-17T04:54:09.134Z,22.20
2023-06-17T04:55:15.704Z,22.24
2023-06-17T04:56:21.202Z,22.26
2023-06-17T04:57:25.380Z,22.22
2023-06-17T04:58:28.034Z,22.22
2023-06-17T04:59:31.751Z,22.14
2023-06-17T05:00:34.397Z,21.88
2023-06-17T05:01:38.112Z,21.70
2023-06-17T05:02:41.895Z,21.58
2023-06-17T05:03:46.098Z,21.41
2023-06-17T05:04:50.133Z,21.07
2023-06-17T05:05:55.548Z,21.08
2023-06-17T05:06:58.725Z,21.18
2023-06-17T05:08:02.214Z,21.30
2023-06-17T05:09:05.370Z,20.83
2023-06-17T05:10:10.246Z,20.81
2023-06-17T05:11:12.908Z,20.72
2023-06-17T05:12:16.463Z,20.67
2023-06-17T05:13:20.312Z,20.89
2023-06-17T05:14:23.181Z,21.05
2023-06-17T05:15:27.264Z,21.24
2023-06-17T05:16:30.244Z,21.45
2023-06-17T05:17:34.029Z,21.55
2023-06-17T05:18:36.803Z,21.45
2023-06-17T05:19:41.054Z,21.36
2023-06-17T05:20:45.244Z,21.62
2023-06-17T05:21:49.933Z,21.76
2023-06-17T05:22:56.151Z,21.82
2023-06-17T05:24:01.330Z,21.87
2023-06-17T05:25:06.916Z,22.00
2023-06-17T05:26:10.281Z,22.03
2023-06-17T05:27:12.787Z,22.04
2023-06-17T05:28:16.452Z,22.17
2023-06-17T05:29:19.440Z,22.05
2023-06-17T05:30:23.778Z,22.14
2023-06-17T05:31:26.312Z,22.16
2023-06-17T05:32:29.938Z,22.28
2023-06-17T05:33:32.405Z,22.15
2023-06-17T05:34:36.418Z,22.26
2023-06-17T05:35:39.039Z,22.24
2023-06-17T05:36:44.153Z,22.09
2023-06-17T05:37:46.655Z,22.27
2023-06-17T05:38:50.847Z,22.26
2023-06-17T05:39:53.394Z,22.29
2023-06-17T05:40:57.515Z,22.44
2023-06-17T05:42:00.093Z,22.53
2023-06-17T05:43:03.869Z,22.56
2023-06-17T05:44:06.339Z,22.69
2023-06-17T05:45:11.473Z,22.74
2023-06-17T05:46:14.856Z,22.80
2023-06-17T05:47:18.572Z,22.91
2023-06-17T05:49:25.000Z,23.13
2023-06-17T05:50:27.663Z,23.22
2023-06-17T05:51:31.371Z,23.21
2023-06-17T05:52:35.762Z,23.24
2023-06-17T05:53:39.791Z,23.16
2023-06-17T05:54:42.312Z,23.22
2023-06-17T05:55:46.161Z,23.23
2023-06-17T05:56:49.239Z,23.14
2023-06-17T05:57:53.589Z,23.21
2023-06-17T05:58:56.770Z,23.24
2023-06-17T06:00:00.635Z,23.23
2023-06-17T06:01:03.517Z,23.24
2023-06-17T06:02:07.969Z,23.22
2023-06-17T06:03:10.428Z,23.24
2023-06-17T06:04:18.479Z,23.25
2023-06-17T06:05:21.777Z,23.24
2023-06-17T06:06:28.090Z,23.34
2023-06-17T06:07:30.896Z,23.34
2023-06-17T06:08:36.553Z,23.37
2023-06-17T06:09:39.233Z,23.46
2023-06-17T06:10:43.398Z,23.46
2023-06-17T06:11:46.867Z,23.56
2023-06-17T06:12:51.933Z,23.61
2023-06-17T06:13:54.551Z,23.65
2023-06-17T06:14:58.992Z,23.70
2023-06-17T06:16:01.543Z,23.73
2023-06-17T06:17:06.034Z,23.68
2023-06-17T06:18:08.525Z,23.72
2023-06-17T06:19:12.524Z,23.77
2023-06-17T06:20:15.934Z,23.69
2023-06-17T06:21:19.631Z,23.78
2023-06-17T06:22:23.227Z,23.72
2023-06-17T06:23:27.397Z,23.76
2023-06-17T06:24:31.453Z,23.80
2023-06-17T06:25:36.805Z,23.71
2023-06-17T06:26:39.217Z,23.82
2023-06-17T06:27:44.144Z,23.82
2023-06-17T06:28:46.984Z,23.62
2023-06-17T06:29:50.896Z,23.67
2023-06-17T06:30:53.448Z,23.51
2023-06-17T06:31:57.247Z,23.47
2023-06-17T06:33:00.122Z,23.46
2023-06-17T06:34:04.052Z,23.43
2023-06-17T06:35:08.015Z,23.40
2023-06-17T06:36:12.536Z,23.32
2023-06-17T06:37:15.228Z,23.36
2023-06-17T06:38:19.094Z,23.28
2023-06-17T06:39:21.555Z,23.33
2023-06-17T06:40:26.832Z,23.28
2023-06-17T06:41:30.151Z,23.28
2023-06-17T06:42:34.563Z,23.30
2023-06-17T06:43:37.470Z,23.28
2023-06-17T06:44:41.278Z,23.27
2023-06-17T06:45:44.273Z,23.33
2023-06-17T06:46:48.304Z,23.31
2023-06-17T06:47:50.817Z,23.40
2023-06-17T06:48:54.918Z,23.40
2023-06-17T06:49:57.675Z,23.44
2023-06-17T06:51:02.769Z,23.45
2023-06-17T06:52:06.098Z,23.38
2023-06-17T06:53:10.206Z,23.43
2023-06-17T06:54:13.013Z,23.38
2023-06-17T06:55:17.122Z,23.39
2023-06-17T06:56:21.290Z,23.48
2023-06-17T06:57:24.871Z,23.54
2023-06-17T06:58:27.364Z,23.58
2023-06-17T06:59:30.988Z,23.61
2023-06-17T07:00:33.712Z,23.64
2023-06-17T07:01:37.765Z,23.64
2023-06-17T07:02:40.736Z,23.62
2023-06-17T07:03:44.394Z,23.57
2023-06-17T07:04:47.334Z,23.57
2023-06-17T07:05:51.472Z,23.58
2023-06-17T07:06:54.456Z,23.64
2023-06-17T07:07:58.641Z,23.65
2023-06-17T07:09:01.574Z,23.65
2023-06-17T07:10:06.200Z,23.68
2023-06-17T07:11:08.737Z,23.71
2023-06-17T07:12:14.355Z,23.75
2023-06-17T07:13:18.848Z,23.79
2023-06-17T07:14:22.694Z,23.80
2023-06-17T07:15:25.208Z,23.88
2023-06-17T07:16:28.748Z,23.80
2023-06-17T07:17:31.644Z,23.91
2023-06-17T07:18:35.220Z,23.92
2023-06-17T07:19:37.962Z,23.99
2023-06-17T07:20:41.914Z,24.03
2023-06-17T07:21:44.380Z,24.04
2023-06-17T07:22:48.066Z,24.03
2023-06-17T07:23:52.123Z,24.08
2023-06-17T07:24:55.983Z,24.14
2023-06-17T07:25:58.817Z,24.10
2023-06-17T07:27:02.564Z,24.02
2023-06-17T07:28:08.655Z,24.07
2023-06-17T07:29:12.249Z,23.98
2023-06-17T07:30:15.156Z,23.96
2023-06-17T07:31:18.914Z,24.05
2023-06-17T07:32:22.088Z,24.03
2023-06-17T07:33:26.002Z,24.03
2023-06-17T07:34:28.703Z,24.00
2023-06-17T07:35:33.107Z,24.10
2023-06-17T07:36:35.960Z,24.10
2023-06-17T07:37:39.787Z,24.14
2023-06-17T07:38:42.955Z,24.07
2023-06-17T07:39:48.456Z,24.05
2023-06-17T07:40:52.458Z,23.91
2023-06-17T07:41:55.237Z,23.94
2023-06-17T07:42:59.303Z,24.02
2023-06-17T07:44:03.399Z,23.90
2023-06-17T07:45:08.373Z,23.95
2023-06-17T07:46:12.216Z,23.92
2023-06-17T07:47:14.823Z,23.84
2023-06-17T07:48:18.924Z,23.97
2023-06-17T07:49:21.433Z,24.00
2023-06-17T07:50:25.418Z,24.06
2023-06-17T07:51:28.398Z,24.14
2023-06-17T07:52:33.081Z,24.22
2023-06-17T07:53:36.479Z,24.25
2023-06-17T07:54:41.344Z,24.20
2023-06-17T07:55:45.427Z,24.18
2023-06-17T07:56:48.063Z,24.23
2023-06-17T07:57:51.959Z,24.14
2023-06-17T07:58:54.541Z,24.29
2023-06-17T07:59:59.827Z,24.39
2023-06-17T08:01:02.982Z,24.48
2023-06-17T08:02:09.804Z,24.50
2023-06-17T08:03:15.733Z,24.41
2023-06-17T08:04:18.395Z,24.47
2023-06-17T08:05:22.322Z,24.58
2023-06-17T08:06:25.271Z,24.63
2023-06-17T08:07:28.787Z,24.65
2023-06-17T08:08:32.021Z,24.63
2023-06-17T08:09:36.027Z,24.67
2023-06-17T08:10:40.594Z,24.75
2023-06-17T08:11:44.403Z,24.81
2023-06-17T08:12:48.383Z,24.92
2023-06-17T08:13:52.172Z,24.95
2023-06-17T08:14:54.727Z,24.82
2023-06-17T08:16:00.008Z,24.73
2023-06-17T08:17:02.899Z,24.82
2023-06-17T08:18:07.146Z,24.86
2023-06-17T08:19:09.990Z,24.89
2023-06-17T08:20:15.360Z,24.92
2023-06-17T08:21:18.761Z,25.01
2023-06-17T08:22:23.326Z,24.99
2023-06-17T08:23:25.922Z,25.01
2023-06-17T08:24:29.810Z,25.00
2023-06-17T08:25:33.592Z,25.00
2023-06-17T08:26:37.173Z,24.97
2023-06-17T08:27:40.240Z,24.91
2023-06-17T08:28:46.582Z,24.96
2023-06-17T08:29:49.128Z,24.93
2023-06-17T08:30:53.457Z,24.95
2023-06-17T08:31:57.424Z,24.94
2023-06-17T08:33:01.257Z,24.96
2023-06-17T08:34:04.026Z,25.00
2023-06-17T08:35:08.731Z,24.99
2023-06-17T08:36:11.454Z,25.03
2023-06-17T08:37:16.683Z,25.05
2023-06-17T08:38:19.296Z,25.11
2023-06-17T08:39:23.150Z,25.19
2023-06-17T08:40:29.734Z,25.24
2023-06-17T08:41:37.615Z,25.38
2023-06-17T08:42:41.761Z,25.43
2023-06-17T08:43:47.047Z,25.39
2023-06-17T08:44:51.674Z,25.38
2023-06-17T08:45:56.340Z,25.50
2023-06-17T08:47:03.974Z,25.44
2023-06-17T08:48:08.133Z,25.48
2023-06-17T08:49:14.486Z,25.33
2023-06-17T08:50:20.022Z,25.17
2023-06-17T08:51:23.662Z,25.25
2023-06-17T08:52:28.911Z,25.35
2023-06-17T08:53:31.454Z,25.22
2023-06-17T08:54:41.691Z,25.34
2023-06-17T08:55:44.395Z,25.35
2023-06-17T08:56:49.225Z,25.32
2023-06-17T08:57:52.514Z,25.43
2023-06-17T08:58:57.002Z,25.42
2023-06-17T08:59:59.951Z,25.52
2023-06-17T09:01:04.171Z,25.51
2023-06-17T09:02:11.783Z,25.56
2023-06-17T09:03:20.606Z,25.53
2023-06-17T09:04:23.882Z,25.50
2023-06-17T09:05:27.475Z,25.42
2023-06-17T09:06:30.853Z,25.23
2023-06-17T09:07:35.659Z,25.25
2023-06-17T09:08:38.850Z,25.25
2023-06-17T09:09:49.102Z,25.37
2023-06-17T09:10:52.101Z,25.52
2023-06-17T09:11:55.654Z,25.63
2023-06-17T09:13:00.187Z,25.57
2023-06-17T09:14:04.621Z,25.55
2023-06-17T09:15:08.880Z,25.53
2023-06-17T09:16:12.978Z,25.56
2023-06-17T09:17:31.778Z,25.61
2023-06-17T09:18:34.595Z,25.65
2023-06-17T09:19:41.719Z,25.67
2023-06-17T09:20:52.899Z,25.79
2023-06-17T09:21:57.306Z,25.88
2023-06-17T09:23:00.321Z,25.74
2023-06-17T09:24:06.117Z,25.76
2023-06-17T09:25:14.180Z,25.84
2023-06-17T09:26:17.881Z,25.89
2023-06-17T09:27:22.139Z,25.90
2023-06-17T09:28:26.832Z,25.99
2023-06-17T09:29:30.766Z,25.95
2023-06-17T09:30:43.845Z,26.05
2023-06-17T09:31:50.237Z,26.00
2023-06-17T09:32:55.293Z,26.04
2023-06-17T09:33:58.786Z,26.07
2023-06-17T09:35:02.695Z,26.08
2023-06-17T09:36:06.341Z,25.92
2023-06-17T09:37:14.258Z,25.96
2023-06-17T09:38:18.740Z,25.76
2023-06-17T09:39:31.032Z,25.83
2023-06-17T09:40:34.529Z,25.75
2023-06-17T09:41:39.167Z,25.82
2023-06-17T09:42:44.094Z,25.81
2023-06-17T09:43:52.573Z,25.74
2023-06-17T09:44:55.697Z,25.51
2023-06-17T09:46:02.447Z,25.37
2023-06-17T09:47:09.225Z,25.43
2023-06-17T09:48:21.179Z,25.40
2023-06-17T09:49:26.405Z,25.56
2023-06-17T09:50:29.276Z,25.60
2023-06-17T09:51:39.525Z,25.55
2023-06-17T09:52:43.104Z,25.59
2023-06-17T09:53:48.898Z,25.63
2023-06-17T09:54:52.744Z,25.57
2023-06-17T09:55:58.343Z,25.59
2023-06-17T09:57:02.951Z,25.65
2023-06-17T09:58:08.282Z,25.71
2023-06-17T09:59:11.610Z,25.87
2023-06-17T10:00:16.228Z,25.99
2023-06-17T10:01:19.054Z,25.88
2023-06-17T10:02:23.146Z,25.88
2023-06-17T10:03:27.374Z,26.00
2023-06-17T10:04:31.566Z,26.13
2023-06-17T10:05:34.170Z,26.29
2023-06-17T10:06:40.181Z,26.29
2023-06-17T10:07:45.154Z,26.13
2023-06-17T10:08:51.534Z,26.08
2023-06-17T10:09:54.853Z,26.04
2023-06-17T10:11:01.653Z,26.09
2023-06-17T10:12:07.434Z,26.06
2023-06-17T10:13:11.480Z,26.05
2023-06-17T10:14:20.110Z,26.01
2023-06-17T10:15:25.036Z,26.00
2023-06-17T10:16:32.261Z,25.80
2023-06-17T10:17:36.831Z,25.71
2023-06-17T10:18:44.621Z,25.65
2023-06-17T10:19:49.203Z,25.59
2023-06-17T10:20:54.352Z,25.47
2023-06-17T10:21:59.012Z,25.45
2023-06-17T10:23:04.434Z,25.50
2023-06-17T10:24:08.982Z,25.60
2023-06-17T10:25:18.098Z,25.49
2023-06-17T10:26:22.881Z,25.47
2023-06-17T10:27:27.093Z,25.19
2023-06-17T10:28:45.126Z,25.19
2023-06-17T10:29:51.184Z,25.35
2023-06-17T10:30:53.914Z,25.43
2023-06-17T10:31:57.626Z,25.43
2023-06-17T10:33:03.154Z,25.46
2023-06-17T10:34:10.694Z,25.44
2023-06-17T10:35:14.006Z,25.45
2023-06-17T10:36:17.910Z,25.42
2023-06-17T10:37:28.250Z,25.37
2023-06-17T10:38:34.737Z,25.35
2023-06-17T10:39:37.237Z,25.30
2023-06-17T10:40:52.180Z,25.30
2023-06-17T10:42:00.938Z,25.23
2023-06-17T10:43:21.948Z,25.21
2023-06-17T10:44:42.647Z,25.08
2023-06-17T10:45:54.688Z,25.01
2023-06-17T10:46:58.051Z,25.05
2023-06-17T10:48:16.559Z,25.03
2023-06-17T10:49:21.492Z,24.95
2023-06-17T10:50:26.187Z,24.98
2023-06-17T10:52:37.298Z,25.09
2023-06-17T10:53:49.089Z,25.23
2023-06-17T10:54:53.812Z,25.40
2023-06-17T10:55:58.768Z,25.60
2023-06-17T10:57:02.426Z,25.71
2023-06-17T10:58:06.438Z,25.86
2023-06-17T10:59:09.474Z,25.84
2023-06-17T11:00:14.208Z,25.76
2023-06-17T11:01:16.968Z,25.71
2023-06-17T11:02:23.974Z,25.79
2023-06-17T11:03:26.875Z,25.84
2023-06-17T11:04:33.580Z,25.91
2023-06-17T11:05:37.161Z,25.91
2023-06-17T11:06:40.639Z,26.01
2023-06-17T11:07:43.303Z,26.11
2023-06-17T11:08:46.951Z,26.29
2023-06-17T11:09:50.305Z,26.36
2023-06-17T11:10:54.520Z,26.25
2023-06-17T11:11:58.261Z,26.27
2023-06-17T11:13:01.798Z,26.20
2023-06-17T11:14:04.390Z,26.16
2023-06-17T11:15:10.208Z,26.08
2023-06-17T11:16:12.990Z,26.07
2023-06-17T11:17:16.770Z,26.10
2023-06-17T11:18:19.559Z,26.04
2023-06-17T11:19:23.410Z,25.97
2023-06-17T11:20:27.798Z,26.01
2023-06-17T11:21:31.640Z,25.98
2023-06-17T11:22:38.643Z,26.10
2023-06-17T11:23:45.137Z,26.19
2023-06-17T11:24:47.816Z,26.35
2023-06-17T11:25:55.407Z,26.43
2023-06-17T11:26:58.401Z,26.52
2023-06-17T11:28:02.061Z,26.32
2023-06-17T11:29:07.130Z,26.33
2023-06-17T11:30:10.541Z,26.27
2023-06-17T11:31:15.917Z,26.29
2023-06-17T11:32:22.020Z,26.34
2023-06-17T11:33:26.467Z,26.33
2023-06-17T11:34:33.520Z,26.36
2023-06-17T11:35:39.942Z,26.39
2023-06-17T11:36:43.098Z,26.34
2023-06-17T11:37:49.656Z,26.37
2023-06-17T11:38:53.658Z,26.40
2023-06-17T11:39:59.750Z,26.51
2023-06-17T11:41:03.882Z,26.60
2023-06-17T11:42:08.434Z,26.61
2023-06-17T11:43:12.420Z,26.63
2023-06-17T11:44:15.333Z,26.55
2023-06-17T11:45:19.528Z,26.67
2023-06-17T11:46:23.042Z,26.59
2023-06-17T11:47:35.438Z,26.54
2023-06-17T11:48:38.036Z,26.52
2023-06-17T11:49:44.312Z,26.61
2023-06-17T11:50:51.315Z,26.58
2023-06-17T11:51:55.253Z,26.47
2023-06-17T11:52:57.986Z,26.40
2023-06-17T11:54:07.287Z,26.32
2023-06-17T11:55:16.056Z,26.28
2023-06-17T11:56:21.896Z,26.19
2023-06-17T11:57:26.745Z,26.36
2023-06-17T11:58:30.330Z,26.35
2023-06-17T11:59:33.275Z,26.28
2023-06-17T12:00:38.323Z,26.27
2023-06-17T12:01:41.725Z,26.28
2023-06-17T12:02:45.902Z,26.47
2023-06-17T12:03:49.943Z,26.53
2023-06-17T12:04:52.834Z,26.57
2023-06-17T12:05:58.866Z,26.69
2023-06-17T12:07:01.375Z,26.72
2023-06-17T12:08:05.503Z,26.64
2023-06-17T12:09:09.648Z,26.74
2023-06-17T12:10:14.230Z,26.89
2023-06-17T12:11:27.255Z,26.74
2023-06-17T12:12:33.678Z,26.76
2023-06-17T12:13:40.587Z,26.79
2023-06-17T12:14:44.320Z,26.74
2023-06-17T12:15:47.259Z,26.49
2023-06-17T12:16:54.384Z,26.64
2023-06-17T12:17:58.467Z,26.75
2023-06-17T12:19:03.174Z,26.79
2023-06-17T12:20:07.214Z,26.84
2023-06-17T12:21:15.260Z,26.83
2023-06-17T12:22:17.878Z,26.69
2023-06-17T12:23:21.733Z,26.57
2023-06-17T12:24:25.050Z,26.60
2023-06-17T12:25:30.219Z,26.59
2023-06-17T12:26:34.096Z,26.65
2023-06-17T12:27:37.934Z,26.67
2023-06-17T12:28:41.469Z,26.69
2023-06-17T12:29:47.008Z,26.74
2023-06-17T12:30:49.656Z,26.74
2023-06-17T12:31:54.911Z,26.66
2023-06-17T12:32:57.649Z,26.70
2023-06-17T12:34:01.293Z,26.75
2023-06-17T12:35:06.482Z,26.73
2023-06-17T12:36:11.623Z,26.65
2023-06-17T12:37:18.221Z,26.77
2023-06-17T12:38:22.874Z,26.70
2023-06-17T12:39:25.808Z,26.87
2023-06-17T12:40:30.220Z,26.83
2023-06-17T12:41:33.051Z,26.96
2023-06-17T12:42:38.242Z,27.04
2023-06-17T12:43:42.070Z,27.01
2023-06-17T12:44:47.721Z,27.11
2023-06-17T12:45:50.330Z,27.12
2023-06-17T12:46:54.772Z,27.23
2023-06-17T12:47:59.290Z,27.36
2023-06-17T12:49:03.066Z,27.36
2023-06-17T12:50:06.365Z,27.27
2023-06-17T12:51:11.019Z,27.05
2023-06-17T12:52:15.913Z,26.92
2023-06-17T12:53:19.787Z,26.84
2023-06-17T12:54:22.333Z,26.63
2023-06-17T12:55:26.131Z,26.50
2023-06-17T12:56:29.171Z,26.30
2023-06-17T12:57:33.161Z,26.27
2023-06-17T12:58:35.734Z,26.21
2023-06-17T12:59:39.568Z,26.25
2023-06-17T13:00:42.862Z,26.31
2023-06-17T13:01:48.750Z,26.48
2023-06-17T13:02:52.077Z,26.53
2023-06-17T13:03:56.781Z,26.65
2023-06-17T13:04:59.203Z,26.49
2023-06-17T13:06:03.521Z,26.35
2023-06-17T13:07:06.859Z,26.36
2023-06-17T13:08:12.211Z,26.30
2023-06-17T13:09:15.405Z,26.27
2023-06-17T13:10:19.241Z,26.15
2023-06-17T13:11:22.118Z,26.19
2023-06-17T13:12:26.036Z,26.20
2023-06-17T13:13:29.079Z,26.31
2023-06-17T13:14:32.715Z,26.28
2023-06-17T13:15:35.174Z,26.14
2023-06-17T13:16:39.716Z,26.36
2023-06-17T13:17:43.651Z,26.43
2023-06-17T13:18:47.373Z,26.37
2023-06-17T13:19:49.964Z,26.28
2023-06-17T13:20:54.321Z,26.28
2023-06-17T13:21:58.848Z,26.23
2023-06-17T13:23:03.455Z,26.25
2023-06-17T13:24:07.853Z,26.20
2023-06-17T13:25:11.973Z,26.25
2023-06-17T13:26:15.838Z,26.14
2023-06-17T13:27:20.150Z,25.94
2023-06-17T13:28:23.169Z,25.92
2023-06-17T13:29:27.955Z,25.82
2023-06-17T13:30:30.410Z,25.85
2023-06-17T13:31:34.644Z,25.73
2023-06-17T13:32:37.746Z,25.73
2023-06-17T13:33:41.711Z,25.80
2023-06-17T13:34:44.568Z,25.85
2023-06-17T13:35:48.100Z,26.05
2023-06-17T13:36:50.668Z,26.06
2023-06-17T13:37:56.367Z,26.02
2023-06-17T13:39:00.003Z,25.93
2023-06-17T13:40:06.281Z,25.80
2023-06-17T13:41:09.642Z,25.78
2023-06-17T13:42:15.078Z,25.91
2023-06-17T13:43:18.815Z,25.96
2023-06-17T13:44:24.254Z,26.12
2023-06-17T13:45:27.135Z,25.91
2023-06-17T13:46:32.021Z,25.95
2023-06-17T13:47:35.290Z,25.98
2023-06-17T13:48:39.846Z,25.84
2023-06-17T13:49:43.469Z,25.77
2023-06-17T13:50:48.167Z,25.76
2023-06-17T13:51:52.343Z,25.93
2023-06-17T13:52:56.215Z,25.94